Athena, Oregon
Current Conditions -  °F | °C
As of 2:53 PM on Thursday 18 Dec 2014 (Local Time) from KPDT Reporting Station
Haze Haze  
Wind Chill: 41°   Ceiling: 8000
Heat Index: 41°   Visibility: 6mi
Dew Point: 39°   Wind: 3mph
Humidity: 93%   Direction: 150°SSE
Pressure: 29.94"   Gusts: NA
Location:  45.81°N, 118.49°W
Report Text: KPDT 182253Z 15003KT 6SM BR OVC080 05/04 A2994 RMK AO2 SLP141 T00500039
Loading
Personal Weather Stations






























Interactive Weather Map New forecast layout! Learn more

10-Day Weather Forecast

Advertisements
Track Severe Weather on mobile